sensor_id;sensor_type;location;lat;lon;timestamp;pressure;altitude;pressure_sealevel;temperature;humidity
27623;BME280;15041;45.334;5.622;2022-07-05T00:01:20;99540.34;;;24.32;71.80
27623;BME280;15041;45.334;5.622;2022-07-05T00:03:47;99540.94;;;24.37;71.36
27623;BME280;15041;45.334;5.622;2022-07-05T00:06:14;99539.09;;;24.29;71.27
27623;BME280;15041;45.334;5.622;2022-07-05T00:08:41;99539.75;;;24.26;71.02
27623;BME280;15041;45.334;5.622;2022-07-05T00:11:09;99541.81;;;24.17;71.20
27623;BME280;15041;45.334;5.622;2022-07-05T00:13:36;99544.00;;;24.12;71.74
27623;BME280;15041;45.334;5.622;2022-07-05T00:16:03;99545.00;;;23.95;73.38
27623;BME280;15041;45.334;5.622;2022-07-05T00:18:30;99542.28;;;24.07;72.85
27623;BME280;15041;45.334;5.622;2022-07-05T00:20:57;99542.75;;;24.21;71.41
27623;BME280;15041;45.334;5.622;2022-07-05T00:23:24;99546.66;;;24.20;71.03
27623;BME280;15041;45.334;5.622;2022-07-05T00:25:50;99546.19;;;24.18;71.07
27623;BME280;15041;45.334;5.622;2022-07-05T00:28:19;99553.91;;;24.13;70.94
27623;BME280;15041;45.334;5.622;2022-07-05T00:30:46;99548.28;;;24.21;70.18
27623;BME280;15041;45.334;5.622;2022-07-05T00:33:12;99555.16;;;24.15;70.01
27623;BME280;15041;45.334;5.622;2022-07-05T00:35:39;99552.63;;;24.10;69.55
27623;BME280;15041;45.334;5.622;2022-07-05T00:38:06;99553.19;;;23.83;69.81
27623;BME280;15041;45.334;5.622;2022-07-05T00:40:33;99549.84;;;23.77;70.29
27623;BME280;15041;45.334;5.622;2022-07-05T00:43:00;99550.50;;;23.95;68.79
27623;BME280;15041;45.334;5.622;2022-07-05T00:45:28;99547.69;;;24.04;68.50
27623;BME280;15041;45.334;5.622;2022-07-05T00:47:55;99545.94;;;23.99;68.17
27623;BME280;15041;45.334;5.622;2022-07-05T00:50:22;99550.22;;;23.88;67.98
27623;BME280;15041;45.334;5.622;2022-07-05T00:52:53;99547.69;;;23.83;68.43
27623;BME280;15041;45.334;5.622;2022-07-05T00:55:20;99538.69;;;23.74;68.41
27623;BME280;15041;45.334;5.622;2022-07-05T00:57:46;99544.94;;;23.83;68.29
27623;BME280;15041;45.334;5.622;2022-07-05T01:00:14;99546.25;;;23.65;69.68
27623;BME280;15041;45.334;5.622;2022-07-05T01:02:42;99539.66;;;23.16;73.32
27623;BME280;15041;45.334;5.622;2022-07-05T01:05:09;99549.56;;;23.38;72.28
27623;BME280;15041;45.334;5.622;2022-07-05T01:07:36;99540.47;;;23.58;70.86
27623;BME280;15041;45.334;5.622;2022-07-05T01:10:03;99547.38;;;23.31;73.44
27623;BME280;15041;45.334;5.622;2022-07-05T01:12:30;99539.75;;;22.79;78.75
27623;BME280;15041;45.334;5.622;2022-07-05T01:14:58;99555.34;;;22.66;80.33
27623;BME280;15041;45.334;5.622;2022-07-05T01:17:25;99550.78;;;22.79;79.24
27623;BME280;15041;45.334;5.622;2022-07-05T01:19:53;99553.16;;;22.80;78.93
27623;BME280;15041;45.334;5.622;2022-07-05T01:22:24;99553.59;;;22.91;78.01
27623;BME280;15041;45.334;5.622;2022-07-05T01:24:53;99555.50;;;22.70;79.53
27623;BME280;15041;45.334;5.622;2022-07-05T01:27:21;99554.00;;;23.01;76.99
27623;BME280;15041;45.334;5.622;2022-07-05T01:29:47;99557.28;;;23.24;74.85
27623;BME280;15041;45.334;5.622;2022-07-05T01:32:16;99556.63;;;23.27;74.23
27623;BME280;15041;45.334;5.622;2022-07-05T01:34:43;99555.69;;;23.23;74.18
27623;BME280;15041;45.334;5.622;2022-07-05T01:37:09;99561.72;;;23.37;73.01
27623;BME280;15041;45.334;5.622;2022-07-05T01:39:37;99554.91;;;23.14;73.35
27623;BME280;15041;45.334;5.622;2022-07-05T01:42:06;99559.25;;;23.15;73.55
27623;BME280;15041;45.334;5.622;2022-07-05T01:44:32;99558.53;;;23.06;73.44
27623;BME280;15041;45.334;5.622;2022-07-05T01:47:04;99566.88;;;22.89;75.54
27623;BME280;15041;45.334;5.622;2022-07-05T01:49:34;99568.78;;;22.97;75.40
27623;BME280;15041;45.334;5.622;2022-07-05T01:52:07;99561.19;;;22.94;75.32
27623;BME280;15041;45.334;5.622;2022-07-05T01:54:35;99562.34;;;23.13;73.74
27623;BME280;15041;45.334;5.622;2022-07-05T01:57:03;99558.31;;;23.11;73.36
27623;BME280;15041;45.334;5.622;2022-07-05T01:59:32;99559.91;;;23.12;72.50
27623;BME280;15041;45.334;5.622;2022-07-05T02:02:00;99564.41;;;23.25;71.96
27623;BME280;15041;45.334;5.622;2022-07-05T02:04:27;99567.16;;;23.25;71.48
27623;BME280;15041;45.334;5.622;2022-07-05T02:06:54;99558.06;;;23.04;72.08
27623;BME280;15041;45.334;5.622;2022-07-05T02:09:21;99568.38;;;22.86;75.66
27623;BME280;15041;45.334;5.622;2022-07-05T02:11:48;99570.91;;;22.91;75.27
27623;BME280;15041;45.334;5.622;2022-07-05T02:14:15;99576.09;;;22.64;77.36
27623;BME280;15041;45.334;5.622;2022-07-05T02:16:45;99578.75;;;22.35;80.69
27623;BME280;15041;45.334;5.622;2022-07-05T02:19:12;99581.59;;;22.64;77.99
27623;BME280;15041;45.334;5.622;2022-07-05T02:21:41;99568.03;;;22.59;78.15
27623;BME280;15041;45.334;5.622;2022-07-05T02:24:12;99572.31;;;22.31;79.52
27623;BME280;15041;45.334;5.622;2022-07-05T02:26:47;99569.56;;;22.31;80.28
27623;BME280;15041;45.334;5.622;2022-07-05T02:29:15;99570.66;;;22.47;79.52
27623;BME280;15041;45.334;5.622;2022-07-05T02:31:45;99568.72;;;22.39;80.09
27623;BME280;15041;45.334;5.622;2022-07-05T02:34:12;99574.09;;;22.73;77.60
27623;BME280;15041;45.334;5.622;2022-07-05T02:36:39;99576.66;;;22.78;76.99
27623;BME280;15041;45.334;5.622;2022-07-05T02:39:09;99572.53;;;22.63;78.25
27623;BME280;15041;45.334;5.622;2022-07-05T02:41:35;99586.19;;;22.43;80.30
27623;BME280;15041;45.334;5.622;2022-07-05T02:44:02;99579.72;;;22.39;80.33
27623;BME280;15041;45.334;5.622;2022-07-05T02:46:29;99589.22;;;21.95;84.37
27623;BME280;15041;45.334;5.622;2022-07-05T02:49:01;99579.19;;;21.99;84.65
27623;BME280;15041;45.334;5.622;2022-07-05T02:51:31;99587.91;;;22.10;82.94
27623;BME280;15041;45.334;5.622;2022-07-05T02:53:59;99588.78;;;21.76;85.06
27623;BME280;15041;45.334;5.622;2022-07-05T02:56:27;99581.16;;;21.65;85.68
27623;BME280;15041;45.334;5.622;2022-07-05T02:58:54;99586.94;;;22.06;82.92
27623;BME280;15041;45.334;5.622;2022-07-05T03:01:22;99588.91;;;21.97;83.52
27623;BME280;15041;45.334;5.622;2022-07-05T03:03:49;99589.25;;;21.87;84.05
27623;BME280;15041;45.334;5.622;2022-07-05T03:06:19;99590.53;;;21.81;85.11
27623;BME280;15041;45.334;5.622;2022-07-05T03:08:46;99592.94;;;21.99;83.87
27623;BME280;15041;45.334;5.622;2022-07-05T03:11:13;99594.22;;;22.02;83.58
27623;BME280;15041;45.334;5.622;2022-07-05T03:13:40;99596.31;;;22.05;82.95
27623;BME280;15041;45.334;5.622;2022-07-05T03:16:07;99593.06;;;22.11;82.45
27623;BME280;15041;45.334;5.622;2022-07-05T03:18:34;99592.19;;;22.36;80.92
27623;BME280;15041;45.334;5.622;2022-07-05T03:21:03;99598.50;;;22.37;79.41
27623;BME280;15041;45.334;5.622;2022-07-05T03:23:33;99588.31;;;22.37;79.38
27623;BME280;15041;45.334;5.622;2022-07-05T03:26:00;99597.53;;;22.50;77.96
27623;BME280;15041;45.334;5.622;2022-07-05T03:28:27;99592.38;;;22.31;77.38
27623;BME280;15041;45.334;5.622;2022-07-05T03:30:57;99601.00;;;22.21;79.98
27623;BME280;15041;45.334;5.622;2022-07-05T03:33:25;99602.31;;;21.64;86.07
27623;BME280;15041;45.334;5.622;2022-07-05T03:35:52;99604.44;;;21.76;85.51
27623;BME280;15041;45.334;5.622;2022-07-05T03:38:19;99601.38;;;21.86;83.13
27623;BME280;15041;45.334;5.622;2022-07-05T03:40:47;99602.50;;;21.85;83.17
27623;BME280;15041;45.334;5.622;2022-07-05T03:43:14;99603.00;;;21.70;84.09
27623;BME280;15041;45.334;5.622;2022-07-05T03:45:42;99612.50;;;21.64;85.24
27623;BME280;15041;45.334;5.622;2022-07-05T03:48:09;99621.72;;;21.68;84.92
27623;BME280;15041;45.334;5.622;2022-07-05T03:50:36;99613.34;;;21.73;85.07
27623;BME280;15041;45.334;5.622;2022-07-05T03:53:03;99613.81;;;21.75;84.83
27623;BME280;15041;45.334;5.622;2022-07-05T03:55:30;99618.31;;;22.05;80.98
27623;BME280;15041;45.334;5.622;2022-07-05T03:57:59;99620.09;;;21.67;82.48
27623;BME280;15041;45.334;5.622;2022-07-05T04:00:25;99622.03;;;21.41;86.77
27623;BME280;15041;45.334;5.622;2022-07-05T04:03:00;99626.41;;;21.59;83.64
27623;BME280;15041;45.334;5.622;2022-07-05T04:05:27;99624.47;;;21.85;80.36
27623;BME280;15041;45.334;5.622;2022-07-05T04:07:55;99628.34;;;22.01;78.06
27623;BME280;15041;45.334;5.622;2022-07-05T04:10:35;99636.88;;;22.16;76.27
27623;BME280;15041;45.334;5.622;2022-07-05T04:13:03;99637.09;;;22.03;77.66
27623;BME280;15041;45.334;5.622;2022-07-05T04:15:31;99634.50;;;21.81;79.22
27623;BME280;15041;45.334;5.622;2022-07-05T04:18:00;99638.56;;;22.00;77.23
27623;BME280;15041;45.334;5.622;2022-07-05T04:20:30;99636.31;;;21.77;79.41
27623;BME280;15041;45.334;5.622;2022-07-05T04:22:57;99637.09;;;21.69;80.17
27623;BME280;15041;45.334;5.622;2022-07-05T04:25:25;99632.25;;;21.83;78.66
27623;BME280;15041;45.334;5.622;2022-07-05T04:28:04;99643.72;;;21.76;79.41
27623;BME280;15041;45.334;5.622;2022-07-05T04:30:33;99640.16;;;21.67;81.18
27623;BME280;15041;45.334;5.622;2022-07-05T04:33:00;99644.38;;;21.82;79.00
27623;BME280;15041;45.334;5.622;2022-07-05T04:35:27;99648.72;;;22.00;76.60
27623;BME280;15041;45.334;5.622;2022-07-05T04:37:54;99655.06;;;22.00;75.80
27623;BME280;15041;45.334;5.622;2022-07-05T04:40:22;99654.84;;;22.14;76.07
27623;BME280;15041;45.334;5.622;2022-07-05T04:42:49;99651.94;;;22.02;76.15
27623;BME280;15041;45.334;5.622;2022-07-05T04:45:19;99661.28;;;21.50;81.70
27623;BME280;15041;45.334;5.622;2022-07-05T04:47:47;99666.03;;;21.02;85.57
27623;BME280;15041;45.334;5.622;2022-07-05T04:50:14;99660.56;;;21.02;87.62
27623;BME280;15041;45.334;5.622;2022-07-05T04:52:42;99659.31;;;21.25;86.31
27623;BME280;15041;45.334;5.622;2022-07-05T04:55:09;99662.63;;;21.05;87.86
27623;BME280;15041;45.334;5.622;2022-07-05T04:57:37;99653.22;;;21.45;84.14
27623;BME280;15041;45.334;5.622;2022-07-05T05:00:05;99660.34;;;21.63;82.38
27623;BME280;15041;45.334;5.622;2022-07-05T05:02:33;99662.13;;;21.67;82.07
27623;BME280;15041;45.334;5.622;2022-07-05T05:05:00;99665.03;;;21.54;83.21
27623;BME280;15041;45.334;5.622;2022-07-05T05:07:27;99658.88;;;21.40;84.29
27623;BME280;15041;45.334;5.622;2022-07-05T05:09:54;99660.34;;;21.63;82.38
27623;BME280;15041;45.334;5.622;2022-07-05T05:12:21;99667.78;;;21.54;83.44
27623;BME280;15041;45.334;5.622;2022-07-05T05:14:48;99663.41;;;21.61;82.80
27623;BME280;15041;45.334;5.622;2022-07-05T05:17:15;99668.41;;;21.68;82.46
27623;BME280;15041;45.334;5.622;2022-07-05T05:19:43;99662.44;;;21.66;83.01
27623;BME280;15041;45.334;5.622;2022-07-05T05:22:10;99668.94;;;21.78;81.83
27623;BME280;15041;45.334;5.622;2022-07-05T05:24:37;99674.91;;;21.72;82.58
27623;BME280;15041;45.334;5.622;2022-07-05T05:27:04;99673.28;;;21.62;83.57
27623;BME280;15041;45.334;5.622;2022-07-05T05:29:31;99673.59;;;21.61;84.02
27623;BME280;15041;45.334;5.622;2022-07-05T05:31:58;99665.72;;;21.76;82.66
27623;BME280;15041;45.334;5.622;2022-07-05T05:34:24;99667.81;;;21.71;83.17
27623;BME280;15041;45.334;5.622;2022-07-05T05:36:52;99669.38;;;21.55;84.45
27623;BME280;15041;45.334;5.622;2022-07-05T05:39:19;99675.50;;;21.35;87.45
27623;BME280;15041;45.334;5.622;2022-07-05T05:41:46;99678.22;;;21.26;87.61
27623;BME280;15041;45.334;5.622;2022-07-05T05:44:13;99679.03;;;21.27;88.64
27623;BME280;15041;45.334;5.622;2022-07-05T05:46:39;99667.69;;;21.20;89.29
27623;BME280;15041;45.334;5.622;2022-07-05T05:49:06;99667.03;;;21.06;90.19
27623;BME280;15041;45.334;5.622;2022-07-05T05:51:33;99666.38;;;21.09;90.07
27623;BME280;15041;45.334;5.622;2022-07-05T05:54:01;99668.53;;;21.29;87.18
27623;BME280;15041;45.334;5.622;2022-07-05T05:56:28;99666.41;;;21.26;88.29
27623;BME280;15041;45.334;5.622;2022-07-05T05:58:54;99669.00;;;21.14;90.57
27623;BME280;15041;45.334;5.622;2022-07-05T06:01:21;99674.47;;;21.14;91.17
27623;BME280;15041;45.334;5.622;2022-07-05T06:03:48;99669.97;;;21.18;90.81
27623;BME280;15041;45.334;5.622;2022-07-05T06:06:14;99676.47;;;21.39;88.80
27623;BME280;15041;45.334;5.622;2022-07-05T06:08:41;99681.16;;;21.38;88.91
27623;BME280;15041;45.334;5.622;2022-07-05T06:11:09;99679.56;;;21.37;88.43
27623;BME280;15041;45.334;5.622;2022-07-05T06:13:36;99679.22;;;21.39;88.97
27623;BME280;15041;45.334;5.622;2022-07-05T06:16:05;99675.50;;;21.35;89.19
27623;BME280;15041;45.334;5.622;2022-07-05T06:18:32;99669.66;;;21.28;91.33
27623;BME280;15041;45.334;5.622;2022-07-05T06:20:59;99675.13;;;21.19;92.15
27623;BME280;15041;45.334;5.622;2022-07-05T06:23:26;99676.09;;;21.15;92.08
27623;BME280;15041;45.334;5.622;2022-07-05T06:25:52;99680.03;;;20.92;95.32
27623;BME280;15041;45.334;5.622;2022-07-05T06:28:21;99682.91;;;20.87;96.75
27623;BME280;15041;45.334;5.622;2022-07-05T06:30:47;99682.84;;;21.09;94.49
27623;BME280;15041;45.334;5.622;2022-07-05T06:33:14;99677.34;;;21.09;93.46
27623;BME280;15041;45.334;5.622;2022-07-05T06:35:41;99689.03;;;21.23;89.37
27623;BME280;15041;45.334;5.622;2022-07-05T06:38:08;99676.81;;;21.46;86.63
27623;BME280;15041;45.334;5.622;2022-07-05T06:40:36;99675.84;;;21.59;83.61
27623;BME280;15041;45.334;5.622;2022-07-05T06:43:06;99665.66;;;21.42;85.90
27623;BME280;15041;45.334;5.622;2022-07-05T06:45:47;99671.31;;;21.63;85.13
27623;BME280;15041;45.334;5.622;2022-07-05T06:48:14;99676.88;;;21.80;82.56
27623;BME280;15041;45.334;5.622;2022-07-05T06:50:43;99669.28;;;21.85;81.10
27623;BME280;15041;45.334;5.622;2022-07-05T06:53:10;99678.81;;;22.05;79.58
27623;BME280;15041;45.334;5.622;2022-07-05T06:55:38;99675.25;;;22.13;78.07
27623;BME280;15041;45.334;5.622;2022-07-05T06:58:09;99673.94;;;22.19;76.47
27623;BME280;15041;45.334;5.622;2022-07-05T07:00:36;99662.44;;;22.25;74.09
27623;BME280;15041;45.334;5.622;2022-07-05T07:03:05;99667.94;;;22.34;72.63
27623;BME280;15041;45.334;5.622;2022-07-05T07:05:31;99673.25;;;22.39;72.95
27623;BME280;15041;45.334;5.622;2022-07-05T07:07:58;99676.50;;;22.41;71.61
27623;BME280;15041;45.334;5.622;2022-07-05T07:10:42;99684.06;;;22.44;72.63
27623;BME280;15041;45.334;5.622;2022-07-05T07:13:09;99679.88;;;22.55;71.59
27623;BME280;15041;45.334;5.622;2022-07-05T07:15:36;99681.66;;;22.59;72.08
27623;BME280;15041;45.334;5.622;2022-07-05T07:18:05;99677.72;;;22.69;70.50
27623;BME280;15041;45.334;5.622;2022-07-05T07:20:32;99677.38;;;22.79;69.77
27623;BME280;15041;45.334;5.622;2022-07-05T07:22:59;99675.09;;;22.81;68.86
27623;BME280;15041;45.334;5.622;2022-07-05T07:25:25;99672.34;;;22.81;67.84
27623;BME280;15041;45.334;5.622;2022-07-05T07:27:53;99673.50;;;22.80;69.77
27623;BME280;15041;45.334;5.622;2022-07-05T07:30:22;99669.97;;;22.71;70.64
27623;BME280;15041;45.334;5.622;2022-07-05T07:32:50;99668.31;;;22.70;70.40
27623;BME280;15041;45.334;5.622;2022-07-05T07:35:19;99667.22;;;22.71;71.30
27623;BME280;15041;45.334;5.622;2022-07-05T07:37:45;99668.31;;;22.70;66.10
27623;BME280;15041;45.334;5.622;2022-07-05T07:40:12;99664.91;;;22.73;66.47
27623;BME280;15041;45.334;5.622;2022-07-05T07:42:39;99674.78;;;22.74;65.04
27623;BME280;15041;45.334;5.622;2022-07-05T07:45:07;99676.56;;;22.78;65.35
27623;BME280;15041;45.334;5.622;2022-07-05T07:47:35;99672.97;;;22.86;65.82
27623;BME280;15041;45.334;5.622;2022-07-05T07:50:03;99671.50;;;22.89;64.96
27623;BME280;15041;45.334;5.622;2022-07-05T07:52:32;99673.75;;;22.95;64.58
27623;BME280;15041;45.334;5.622;2022-07-05T07:54:59;99670.84;;;22.92;65.76
27623;BME280;15041;45.334;5.622;2022-07-05T07:57:26;99663.53;;;22.96;64.01
27623;BME280;15041;45.334;5.622;2022-07-05T07:59:53;99669.81;;;23.05;64.87
27623;BME280;15041;45.334;5.622;2022-07-05T08:02:20;99669.81;;;23.05;63.97
27623;BME280;15041;45.334;5.622;2022-07-05T08:04:48;99670.03;;;22.91;63.15
27623;BME280;15041;45.334;5.622;2022-07-05T08:07:15;99669.81;;;23.05;65.57
27623;BME280;15041;45.334;5.622;2022-07-05T08:09:44;99672.84;;;23.12;64.15
27623;BME280;15041;45.334;5.622;2022-07-05T08:12:11;99670.78;;;23.09;65.85
27623;BME280;15041;45.334;5.622;2022-07-05T08:14:38;99664.56;;;23.12;65.29
27623;BME280;15041;45.334;5.622;2022-07-05T08:17:05;99666.81;;;23.27;65.60
27623;BME280;15041;45.334;5.622;2022-07-05T08:19:34;99668.69;;;23.35;62.91
27623;BME280;15041;45.334;5.622;2022-07-05T08:22:19;99666.50;;;23.49;63.62
27623;BME280;15041;45.334;5.622;2022-07-05T08:24:47;99658.22;;;23.49;65.33
27623;BME280;15041;45.334;5.622;2022-07-05T08:27:14;99661.47;;;23.51;66.07
27623;BME280;15041;45.334;5.622;2022-07-05T08:29:41;99654.19;;;23.67;65.90
27623;BME280;15041;45.334;5.622;2022-07-05T08:32:08;99657.91;;;23.71;65.99
27623;BME280;15041;45.334;5.622;2022-07-05T08:34:36;99658.06;;;23.74;64.93
27623;BME280;15041;45.334;5.622;2022-07-05T08:37:03;99659.56;;;23.84;65.65
27623;BME280;15041;45.334;5.622;2022-07-05T08:39:30;99651.50;;;23.79;66.07
27623;BME280;15041;45.334;5.622;2022-07-05T08:41:59;99653.53;;;23.91;65.41
27623;BME280;15041;45.334;5.622;2022-07-05T08:44:27;99651.41;;;23.96;64.99
27623;BME280;15041;45.334;5.622;2022-07-05T08:46:55;99652.34;;;24.00;65.27
27623;BME280;15041;45.334;5.622;2022-07-05T08:49:25;99646.56;;;23.93;65.72
27623;BME280;15041;45.334;5.622;2022-07-05T08:51:52;99644.78;;;24.09;65.73
27623;BME280;15041;45.334;5.622;2022-07-05T08:54:21;99644.50;;;24.23;65.66
27623;BME280;15041;45.334;5.622;2022-07-05T08:56:49;99642.34;;;24.28;66.02
27623;BME280;15041;45.334;5.622;2022-07-05T08:59:17;99637.31;;;24.10;65.51
27623;BME280;15041;45.334;5.622;2022-07-05T09:01:45;99635.53;;;24.26;67.42
27623;BME280;15041;45.334;5.622;2022-07-05T09:04:16;99638.69;;;24.36;66.45
27623;BME280;15041;45.334;5.622;2022-07-05T09:06:46;99642.25;;;24.49;66.03
27623;BME280;15041;45.334;5.622;2022-07-05T09:09:16;99640.38;;;24.61;65.50
27623;BME280;15041;45.334;5.622;2022-07-05T09:11:44;99637.38;;;24.66;64.95
27623;BME280;15041;45.334;5.622;2022-07-05T09:14:20;99640.16;;;24.78;65.16
27623;BME280;15041;45.334;5.622;2022-07-05T09:16:48;99632.56;;;24.75;64.49
27623;BME280;15041;45.334;5.622;2022-07-05T09:19:15;99635.56;;;24.82;66.01
27623;BME280;15041;45.334;5.622;2022-07-05T09:21:42;99636.13;;;24.88;64.44
27623;BME280;15041;45.334;5.622;2022-07-05T09:24:10;99630.03;;;24.82;63.87
27623;BME280;15041;45.334;5.622;2022-07-05T09:26:40;99630.25;;;24.89;65.03
27623;BME280;15041;45.334;5.622;2022-07-05T09:29:09;99632.56;;;24.87;64.60
27623;BME280;15041;45.334;5.622;2022-07-05T09:31:38;99626.47;;;24.94;64.99
27623;BME280;15041;45.334;5.622;2022-07-05T09:34:07;99630.16;;;25.10;64.88
27623;BME280;15041;45.334;5.622;2022-07-05T09:36:50;99625.91;;;25.24;64.12
27623;BME280;15041;45.334;5.622;2022-07-05T09:39:17;99624.53;;;25.30;63.38
27623;BME280;15041;45.334;5.622;2022-07-05T09:41:44;99630.97;;;25.34;63.38
27623;BME280;15041;45.334;5.622;2022-07-05T09:44:11;99617.38;;;25.41;61.00
27623;BME280;15041;45.334;5.622;2022-07-05T09:46:39;99623.78;;;25.45;59.76
27623;BME280;15041;45.334;5.622;2022-07-05T09:49:05;99624.94;;;25.44;62.29
27623;BME280;15041;45.334;5.622;2022-07-05T09:51:46;99627.28;;;25.42;61.17
27623;BME280;15041;45.334;5.622;2022-07-05T09:54:14;99626.78;;;25.52;61.93
27623;BME280;15041;45.334;5.622;2022-07-05T09:56:44;99627.91;;;25.63;61.41
27623;BME280;15041;45.334;5.622;2022-07-05T09:59:13;99625.34;;;25.70;62.37
27623;BME280;15041;45.334;5.622;2022-07-05T10:01:41;99629.75;;;25.71;61.77
27623;BME280;15041;45.334;5.622;2022-07-05T10:04:08;99627.19;;;25.66;62.22
27623;BME280;15041;45.334;5.622;2022-07-05T10:06:35;99628.69;;;25.64;62.49
27623;BME280;15041;45.334;5.622;2022-07-05T10:09:04;99633.88;;;25.65;62.23
27623;BME280;15041;45.334;5.622;2022-07-05T10:11:30;99630.88;;;25.70;62.77
27623;BME280;15041;45.334;5.622;2022-07-05T10:13:58;99625.81;;;25.72;61.98
27623;BME280;15041;45.334;5.622;2022-07-05T10:16:25;99630.13;;;25.85;62.28
27623;BME280;15041;45.334;5.622;2022-07-05T10:18:55;99635.88;;;25.92;62.33
27623;BME280;15041;45.334;5.622;2022-07-05T10:21:24;99631.13;;;25.93;61.57
27623;BME280;15041;45.334;5.622;2022-07-05T10:23:51;99629.88;;;26.02;61.74
27623;BME280;15041;45.334;5.622;2022-07-05T10:26:19;99628.28;;;26.01;61.08
27623;BME280;15041;45.334;5.622;2022-07-05T10:28:48;99623.66;;;26.05;60.42
27623;BME280;15041;45.334;5.622;2022-07-05T10:31:16;99621.06;;;26.12;60.71
27623;BME280;15041;45.334;5.622;2022-07-05T10:33:43;99619.19;;;26.16;60.72
27623;BME280;15041;45.334;5.622;2022-07-05T10:36:13;99623.31;;;26.22;60.66
27623;BME280;15041;45.334;5.622;2022-07-05T10:38:42;99626.72;;;26.31;60.21
27623;BME280;15041;45.334;5.622;2022-07-05T10:41:14;99631.38;;;26.27;59.58
27623;BME280;15041;45.334;5.622;2022-07-05T10:43:41;99630.56;;;26.27;59.49
27623;BME280;15041;45.334;5.622;2022-07-05T10:46:10;99624.41;;;26.33;60.75
27623;BME280;15041;45.334;5.622;2022-07-05T10:48:36;99628.41;;;26.36;60.13
27623;BME280;15041;45.334;5.622;2022-07-05T10:51:15;99631.75;;;26.41;60.12
27623;BME280;15041;45.334;5.622;2022-07-05T10:54:01;99624.81;;;26.47;60.09
27623;BME280;15041;45.334;5.622;2022-07-05T10:56:28;99632.84;;;26.52;60.31
27623;BME280;15041;45.334;5.622;2022-07-05T10:59:04;99627.81;;;26.42;59.03
27623;BME280;15041;45.334;5.622;2022-07-05T11:01:36;99624.34;;;26.45;58.29
27623;BME280;15041;45.334;5.622;2022-07-05T11:04:11;99628.81;;;26.50;57.73
27623;BME280;15041;45.334;5.622;2022-07-05T11:06:42;99628.47;;;26.51;58.09
27623;BME280;15041;45.334;5.622;2022-07-05T11:09:20;99633.03;;;26.59;58.01
27623;BME280;15041;45.334;5.622;2022-07-05T11:12:01;99635.56;;;26.64;57.08
27623;BME280;15041;45.334;5.622;2022-07-05T11:14:33;99635.91;;;26.78;56.96
27623;BME280;15041;45.334;5.622;2022-07-05T11:17:16;99634.31;;;26.77;55.93
27623;BME280;15041;45.334;5.622;2022-07-05T11:20:15;99624.03;;;26.78;56.26
27623;BME280;15041;45.334;5.622;2022-07-05T11:23:16;99622.22;;;26.70;56.16
27623;BME280;15041;45.334;5.622;2022-07-05T11:25:53;99620.91;;;26.79;55.56
27623;BME280;15041;45.334;5.622;2022-07-05T11:28:21;99615.34;;;26.79;55.08
27623;BME280;15041;45.334;5.622;2022-07-05T11:30:54;99604.34;;;26.83;55.21
27623;BME280;15041;45.334;5.622;2022-07-05T11:33:41;99603.91;;;26.96;54.13
27623;BME280;15041;45.334;5.622;2022-07-05T11:36:21;99604.38;;;26.98;54.97
27623;BME280;15041;45.334;5.622;2022-07-05T11:39:08;99605.50;;;26.97;53.70
27623;BME280;15041;45.334;5.622;2022-07-05T11:41:36;99610.50;;;27.07;53.66
27623;BME280;15041;45.334;5.622;2022-07-05T11:44:05;99613.06;;;27.16;53.35
27623;BME280;15041;45.334;5.622;2022-07-05T11:46:32;99614.47;;;27.22;52.35
27623;BME280;15041;45.334;5.622;2022-07-05T11:49:00;99610.22;;;27.12;52.57
27623;BME280;15041;45.334;5.622;2022-07-05T11:51:27;99604.41;;;27.17;52.54
27623;BME280;15041;45.334;5.622;2022-07-05T11:53:53;99609.06;;;27.13;51.17
27623;BME280;15041;45.334;5.622;2022-07-05T11:56:22;99593.06;;;27.22;51.63
27623;BME280;15041;45.334;5.622;2022-07-05T11:58:49;99585.09;;;27.36;53.35
27623;BME280;15041;45.334;5.622;2022-07-05T12:01:15;99593.25;;;27.48;52.55
27623;BME280;15041;45.334;5.622;2022-07-05T12:03:52;99576.78;;;27.55;51.39
27623;BME280;15041;45.334;5.622;2022-07-05T12:06:21;99579.13;;;27.53;53.19
27623;BME280;15041;45.334;5.622;2022-07-05T12:09:01;99580.88;;;27.61;52.07
27623;BME280;15041;45.334;5.622;2022-07-05T12:11:29;99587.16;;;27.58;51.18
27623;BME280;15041;45.334;5.622;2022-07-05T12:14:20;99591.34;;;27.52;51.13
27623;BME280;15041;45.334;5.622;2022-07-05T12:16:47;99586.47;;;27.46;49.85
27623;BME280;15041;45.334;5.622;2022-07-05T12:19:23;99584.00;;;27.60;50.90
27623;BME280;15041;45.334;5.622;2022-07-05T12:21:54;99576.84;;;27.59;49.49
27623;BME280;15041;45.334;5.622;2022-07-05T12:24:21;99584.06;;;27.63;50.65
27623;BME280;15041;45.334;5.622;2022-07-05T12:26:51;99582.91;;;27.45;49.18
27623;BME280;15041;45.334;5.622;2022-07-05T12:29:18;99583.03;;;27.52;49.74
27623;BME280;15041;45.334;5.622;2022-07-05T12:31:59;99579.72;;;27.62;49.08
27623;BME280;15041;45.334;5.622;2022-07-05T12:34:27;99571.81;;;27.64;48.24
27623;BME280;15041;45.334;5.622;2022-07-05T12:36:55;99581.94;;;27.76;50.19
27623;BME280;15041;45.334;5.622;2022-07-05T12:39:22;99576.50;;;27.79;47.47
27623;BME280;15041;45.334;5.622;2022-07-05T12:41:50;99576.50;;;27.79;48.43
27623;BME280;15041;45.334;5.622;2022-07-05T12:44:18;99575.41;;;27.84;47.26
27623;BME280;15041;45.334;5.622;2022-07-05T12:46:46;99571.09;;;27.86;48.10
27623;BME280;15041;45.334;5.622;2022-07-05T12:49:14;99565.53;;;27.86;47.16
27623;BME280;15041;45.334;5.622;2022-07-05T12:51:42;99554.59;;;27.93;46.42
27623;BME280;15041;45.334;5.622;2022-07-05T12:54:18;99564.09;;;27.92;45.75
27623;BME280;15041;45.334;5.622;2022-07-05T12:57:05;99553.13;;;27.99;46.63
27623;BME280;15041;45.334;5.622;2022-07-05T12:59:59;99554.56;;;28.12;46.31
27623;BME280;15041;45.334;5.622;2022-07-05T13:02:36;99554.13;;;28.10;44.63
27623;BME280;15041;45.334;5.622;2022-07-05T13:05:05;99542.28;;;28.13;44.79
27623;BME280;15041;45.334;5.622;2022-07-05T13:07:33;99550.31;;;28.18;46.89
27623;BME280;15041;45.334;5.622;2022-07-05T13:10:14;99549.44;;;28.14;45.02